Time;durP1;ratioP1;P1;durP2;ratioP2;P2;SDS_P1;SDS_P2;PMS_P1;PMS_P2;Temp;Humidity;BMP_temperature;BMP_pressure;BME280_temperature;BME280_humidity;BME280_pressure;Samples;Min_cycle;Max_cycle;Signal;HPM_P1;HPM_P2
2022/03/23 00:00:39;;;;;;;48.13;22.27;;;;;;;5.32;nan;102033.91;5023093;28;20470;-69
2022/03/23 00:03:05;;;;;;;50.60;24.55;;;;;;;5.28;nan;102037.78;5013802;28;20073;-69
2022/03/23 00:05:32;;;;;;;47.35;23.25;;;;;;;5.23;nan;102059.09;5018534;28;20044;-70
2022/03/23 00:07:58;;;;;;;52.47;25.65;;;;;;;5.02;nan;102058.56;5003288;28;20033;-69
2022/03/23 00:10:24;;;;;;;50.83;26.73;;;;;;;4.93;nan;102057.66;4995796;28;20766;-69
2022/03/23 00:12:51;;;;;;;54.83;29.42;;;;;;;4.80;nan;102060.59;5025286;28;20039;-69
2022/03/23 00:15:17;;;;;;;56.20;30.45;;;;;;;4.71;nan;102045.00;5009790;28;20087;-69
2022/03/23 00:17:42;;;;;;;57.55;29.52;;;;;;;4.53;nan;102024.09;5017313;28;20037;-69
2022/03/23 00:20:08;;;;;;;56.70;29.63;;;;;;;4.59;nan;102037.38;5016880;28;20034;-69
2022/03/23 00:22:34;;;;;;;57.40;29.70;;;;;;;4.60;nan;102046.84;5018006;28;20037;-69
2022/03/23 00:24:59;;;;;;;58.17;30.65;;;;;;;4.58;nan;102042.75;5025544;28;20117;-69
2022/03/23 00:27:25;;;;;;;58.85;30.02;;;;;;;4.54;nan;102023.94;4997081;28;20102;-70
2022/03/23 00:29:50;;;;;;;61.53;29.77;;;;;;;4.47;nan;102015.03;5008690;28;20124;-70
2022/03/23 00:32:16;;;;;;;58.03;29.65;;;;;;;4.51;nan;102019.00;5013938;28;20107;-71
2022/03/23 00:34:41;;;;;;;56.00;29.70;;;;;;;4.44;nan;102008.34;5028844;28;20116;-70
2022/03/23 00:37:07;;;;;;;57.78;29.20;;;;;;;4.46;nan;102009.00;5023685;28;20144;-72
2022/03/23 00:39:32;;;;;;;57.13;29.10;;;;;;;4.49;nan;102020.94;5006088;28;20509;-70
2022/03/23 00:41:58;;;;;;;61.13;30.35;;;;;;;4.37;nan;102012.50;5021160;28;20045;-70
2022/03/23 00:44:23;;;;;;;52.90;27.55;;;;;;;4.37;nan;102025.53;5021401;28;20120;-70
2022/03/23 00:46:49;;;;;;;56.22;28.63;;;;;;;4.38;nan;102026.34;5019278;28;20428;-69
2022/03/23 00:49:15;;;;;;;53.45;28.15;;;;;;;4.42;nan;102036.34;5019332;28;20042;-70
2022/03/23 00:51:40;;;;;;;54.75;29.02;;;;;;;4.41;nan;102039.94;5026988;28;20107;-69
2022/03/23 00:54:09;;;;;;;117.63;43.85;;;;;;;4.28;nan;102038.59;5002553;28;20492;-70
2022/03/23 00:56:39;;;;;;;102.55;40.55;;;;;;;4.04;nan;102038.13;5019009;28;20034;-70
2022/03/23 00:59:07;;;;;;;87.63;36.33;;;;;;;4.10;nan;102049.78;5025620;28;20072;-69
2022/03/23 01:01:32;;;;;;;76.13;33.85;;;;;;;4.05;nan;102025.94;5024314;28;20045;-69
2022/03/23 01:03:57;;;;;;;66.13;32.72;;;;;;;4.04;nan;102027.69;5024162;28;20727;-70
2022/03/23 01:06:23;;;;;;;75.78;34.97;;;;;;;4.18;nan;102051.69;5002926;28;20419;-69
2022/03/23 01:08:48;;;;;;;81.63;34.90;;;;;;;4.13;nan;102039.06;5032747;28;20491;-69
2022/03/23 01:11:14;;;;;;;70.68;34.28;;;;;;;4.10;nan;102044.56;4999712;28;20037;-70
2022/03/23 01:13:39;;;;;;;74.43;33.70;;;;;;;4.02;nan;102027.03;5024116;28;20080;-70
2022/03/23 01:16:05;;;;;;;81.35;35.33;;;;;;;3.99;nan;102032.50;5012630;28;20048;-70
2022/03/23 01:18:32;;;;;;;71.55;34.53;;;;;;;4.02;nan;102058.31;5033245;28;20041;-69
2022/03/23 01:20:57;;;;;;;68.68;33.33;;;;;;;3.80;nan;102040.38;5024514;28;20052;-70
2022/03/23 01:23:23;;;;;;;62.65;32.17;;;;;;;3.73;nan;102042.72;5014280;28;20041;-70
2022/03/23 01:25:48;;;;;;;63.90;32.88;;;;;;;3.79;nan;102065.63;5018423;28;20029;-70
2022/03/23 01:28:14;;;;;;;77.30;36.47;;;;;;;3.76;nan;102052.88;5016678;28;20026;-69
2022/03/23 01:30:39;;;;;;;84.53;39.25;;;;;;;3.81;nan;102055.88;5008939;28;20045;-70
2022/03/23 01:33:05;;;;;;;95.82;41.17;;;;;;;3.69;nan;102045.72;5026807;28;20037;-70
2022/03/23 01:35:30;;;;;;;94.45;42.03;;;;;;;3.68;nan;102044.09;5026157;28;20038;-69
2022/03/23 01:37:56;;;;;;;79.97;36.75;;;;;;;3.71;nan;102046.41;5018023;28;20093;-69
2022/03/23 01:40:21;;;;;;;80.75;36.60;;;;;;;3.70;nan;102050.81;5012353;28;20138;-70
2022/03/23 01:42:47;;;;;;;89.35;38.90;;;;;;;3.67;nan;102056.31;5021563;28;20591;-70
2022/03/23 01:45:14;;;;;;;100.35;45.72;;;;;;;3.56;nan;102040.81;5014442;28;20041;-71
2022/03/23 01:47:39;;;;;;;90.30;41.85;;;;;;;3.60;nan;102048.22;5013396;28;20480;-70
2022/03/23 01:50:06;;;;;;;72.78;34.72;;;;;;;3.52;nan;102037.69;5019288;28;20033;-69
2022/03/23 01:52:32;;;;;;;63.50;31.40;;;;;;;3.55;nan;102036.56;5014972;28;20598;-69
2022/03/23 01:55:01;;;;;;;63.35;30.48;;;;;;;3.56;nan;102044.22;5026138;28;20120;-69
2022/03/23 01:57:28;;;;;;;68.93;30.50;;;;;;;3.55;nan;102029.56;5016401;28;20087;-69
2022/03/23 01:59:53;;;;;;;64.25;30.02;;;;;;;3.52;nan;102036.81;5021993;28;20043;-70
2022/03/23 02:02:19;;;;;;;63.90;32.42;;;;;;;3.51;nan;102043.81;5021722;28;20048;-70
2022/03/23 02:04:45;;;;;;;63.53;30.05;;;;;;;3.46;nan;102034.78;5028686;28;20095;-70
2022/03/23 02:07:10;;;;;;;54.67;29.33;;;;;;;3.45;nan;102044.38;5026748;28;20095;-69
2022/03/23 02:09:36;;;;;;;59.42;29.98;;;;;;;3.48;nan;102041.50;5012900;28;20065;-68
2022/03/23 02:12:02;;;;;;;65.43;30.63;;;;;;;3.47;nan;102042.47;5036003;28;20041;-69
2022/03/23 02:14:29;;;;;;;55.15;29.88;;;;;;;3.43;nan;102041.09;5021063;28;20042;-69
2022/03/23 02:16:55;;;;;;;60.28;30.98;;;;;;;3.43;nan;102046.31;5030330;28;20033;-69
2022/03/23 02:19:23;;;;;;;65.93;29.90;;;;;;;3.32;nan;102049.03;5022010;28;20045;-69
2022/03/23 02:21:50;;;;;;;62.75;30.38;;;;;;;3.27;nan;102052.03;5017684;28;20112;-70
2022/03/23 02:24:16;;;;;;;62.83;30.63;;;;;;;3.29;nan;102063.16;5024769;28;20039;-69
2022/03/23 02:26:42;;;;;;;57.97;29.10;;;;;;;3.20;nan;102043.13;5024299;28;20025;-70
2022/03/23 02:29:09;;;;;;;65.60;31.20;;;;;;;3.11;nan;102033.53;5011992;28;20563;-70
2022/03/23 02:31:35;;;;;;;63.83;30.73;;;;;;;3.06;nan;102033.13;5025476;28;20038;-70
2022/03/23 02:34:02;;;;;;;61.47;30.33;;;;;;;3.11;nan;102050.00;5029522;28;20079;-70
2022/03/23 02:36:27;;;;;;;56.40;29.10;;;;;;;2.93;nan;102049.00;5023800;28;20365;-70
2022/03/23 02:38:53;;;;;;;57.90;29.27;;;;;;;2.95;nan;102068.72;5031167;28;20033;-70
2022/03/23 02:41:19;;;;;;;60.90;29.52;;;;;;;2.85;nan;102060.06;5022843;28;20041;-69
2022/03/23 02:43:45;;;;;;;67.10;29.45;;;;;;;2.73;nan;102064.56;5013181;28;20106;-69
2022/03/23 02:46:15;;;;;;;60.33;30.15;;;;;;;2.62;nan;102058.63;5020943;28;20136;-70
2022/03/23 02:48:42;;;;;;;64.00;30.52;;;;;;;2.67;nan;102065.06;5017452;28;20029;-70
2022/03/23 02:51:07;;;;;;;63.17;31.50;;;;;;;2.70;nan;102063.97;5025676;28;20768;-71
2022/03/23 03:02:22;;;;;;;59.67;28.52;;;;;;;2.77;nan;102067.69;5021637;28;20073;-69
2022/03/23 03:04:49;;;;;;;64.45;28.80;;;;;;;2.70;nan;102067.41;5015504;28;20045;-70
2022/03/23 03:07:15;;;;;;;59.10;28.40;;;;;;;2.74;nan;102074.00;5021409;28;20039;-69
2022/03/23 03:09:41;;;;;;;56.70;28.10;;;;;;;2.71;nan;102074.25;5023595;28;20089;-69
2022/03/23 03:12:07;;;;;;;61.55;28.70;;;;;;;2.65;nan;102072.19;5021917;28;20065;-70
2022/03/23 03:14:34;;;;;;;56.85;28.48;;;;;;;2.60;nan;102070.94;5001171;28;20116;-69
2022/03/23 03:16:59;;;;;;;62.45;29.98;;;;;;;2.42;nan;102047.31;5007848;28;20050;-69
2022/03/23 03:19:25;;;;;;;65.65;28.30;;;;;;;2.51;nan;102069.94;5021552;28;20092;-69
2022/03/23 03:21:50;;;;;;;60.47;28.38;;;;;;;2.37;nan;102067.69;5011747;28;20120;-70
2022/03/23 03:24:16;;;;;;;59.15;27.58;;;;;;;2.42;nan;102081.94;5023666;28;20038;-70
2022/03/23 03:26:41;;;;;;;61.35;27.02;;;;;;;2.36;nan;102081.63;5028679;28;20034;-69
2022/03/23 03:29:06;;;;;;;51.90;26.02;;;;;;;2.32;nan;102086.25;5025098;28;20033;-71
2022/03/23 03:31:33;;;;;;;57.75;25.83;;;;;;;2.26;nan;102082.41;5014713;28;20029;-69
2022/03/23 03:33:58;;;;;;;55.40;26.30;;;;;;;2.21;nan;102084.56;5023668;28;20033;-70
2022/03/23 03:36:24;;;;;;;49.25;24.40;;;;;;;2.21;nan;102084.56;5026347;28;20041;-70
2022/03/23 03:38:50;;;;;;;50.38;22.90;;;;;;;2.28;nan;102092.69;5026551;28;20030;-71
2022/03/23 03:41:16;;;;;;;53.33;23.30;;;;;;;2.27;nan;102094.44;5020319;28;20683;-70
2022/03/23 03:43:43;;;;;;;56.67;23.02;;;;;;;2.27;nan;102102.25;5019686;28;20041;-70
2022/03/23 03:46:10;;;;;;;69.85;22.95;;;;;;;2.14;nan;102083.44;5022810;28;20099;-71
2022/03/23 03:48:36;;;;;;;43.50;21.08;;;;;;;2.22;nan;102106.19;5022754;28;20080;-70
2022/03/23 03:51:06;;;;;;;55.80;22.45;;;;;;;2.14;nan;102093.84;5025229;28;20041;-70
2022/03/23 03:53:32;;;;;;;51.50;22.05;;;;;;;1.99;nan;102095.09;5014666;28;20037;-70
2022/03/23 03:55:57;;;;;;;58.40;20.23;;;;;;;2.12;nan;102108.72;5027300;28;20076;-70
2022/03/23 03:58:23;;;;;;;55.15;21.98;;;;;;;1.96;nan;102101.34;5022971;28;20061;-69
2022/03/23 04:00:49;;;;;;;50.15;22.05;;;;;;;2.04;nan;102119.75;5025995;28;20037;-70
2022/03/23 04:03:15;;;;;;;58.17;22.65;;;;;;;1.96;nan;102116.13;5023137;28;20453;-70
2022/03/23 04:05:41;;;;;;;48.47;21.52;;;;;;;1.82;nan;102104.25;5018240;28;20115;-73
2022/03/23 04:08:07;;;;;;;61.22;22.10;;;;;;;1.90;nan;102117.47;5018076;28;20118;-72
2022/03/23 04:10:33;;;;;;;65.47;21.60;;;;;;;1.91;nan;102114.72;5013336;28;20084;-70
2022/03/23 04:12:59;;;;;;;48.30;19.92;;;;;;;1.89;nan;102114.06;5017350;28;20057;-70
2022/03/23 04:15:25;;;;;;;47.90;21.33;;;;;;;1.89;nan;102119.25;5015462;28;20459;-68
2022/03/23 04:17:52;;;;;;;54.97;20.63;;;;;;;1.69;nan;102094.88;5020487;28;20443;-70
2022/03/23 04:20:18;;;;;;;45.53;21.35;;;;;;;1.72;nan;102105.97;4993867;28;20104;-69
2022/03/23 04:22:43;;;;;;;53.95;21.30;;;;;;;1.77;nan;102117.63;5023502;28;20443;-70
2022/03/23 04:25:11;;;;;;;56.35;20.65;;;;;;;1.79;nan;102127.91;5013894;28;20044;-70
2022/03/23 04:27:46;;;;;;;53.97;20.67;;;;;;;1.67;nan;102111.53;5026676;28;20045;-70
2022/03/23 04:30:13;;;;;;;55.38;20.70;;;;;;;1.64;nan;102091.03;5016110;28;20446;-70
2022/03/23 04:32:38;;;;;;;48.92;20.08;;;;;;;1.75;nan;102114.34;5023182;28;20057;-70
2022/03/23 04:35:05;;;;;;;51.33;19.38;;;;;;;1.85;nan;102117.03;5015512;28;20455;-70
2022/03/23 04:37:31;;;;;;;62.17;20.58;;;;;;;1.84;nan;102110.97;5027957;28;20048;-70
2022/03/23 04:39:56;;;;;;;49.97;20.80;;;;;;;1.94;nan;102120.63;5026872;28;20204;-71
2022/03/23 04:42:22;;;;;;;56.90;20.15;;;;;;;1.91;nan;102117.31;5028201;28;20029;-71
2022/03/23 04:44:47;;;;;;;44.35;19.27;;;;;;;1.96;nan;102121.31;5010862;28;20132;-70
2022/03/23 04:47:13;;;;;;;52.05;20.73;;;;;;;1.98;nan;102124.63;5025951;28;20026;-69
2022/03/23 04:49:39;;;;;;;52.95;20.80;;;;;;;1.96;nan;102122.16;5025019;28;20033;-69
2022/03/23 04:52:04;;;;;;;56.88;21.25;;;;;;;1.94;nan;102124.06;5026746;28;20043;-71
2022/03/23 04:54:30;;;;;;;65.22;22.77;;;;;;;1.83;nan;102111.13;5007602;28;20404;-68
2022/03/23 04:56:55;;;;;;;49.58;21.33;;;;;;;1.93;nan;102135.41;5026860;28;20041;-71
2022/03/23 04:59:21;;;;;;;52.85;21.02;;;;;;;1.76;nan;102126.38;5026670;28;20104;-70
2022/03/23 05:01:47;;;;;;;59.20;20.17;;;;;;;1.78;nan;102127.09;5025169;28;20682;-71
2022/03/23 05:04:13;;;;;;;61.28;21.35;;;;;;;1.63;nan;102105.78;5026782;28;20037;-69
2022/03/23 05:06:38;;;;;;;48.95;20.23;;;;;;;1.76;nan;102113.38;5015892;28;20030;-70
2022/03/23 05:09:03;;;;;;;58.08;20.60;;;;;;;1.94;nan;102129.25;5024938;28;20549;-71
2022/03/23 05:11:29;;;;;;;54.33;20.40;;;;;;;1.96;nan;102129.94;5005689;28;20476;-71
2022/03/23 05:13:55;;;;;;;46.92;20.35;;;;;;;2.04;nan;102137.94;5027060;28;20041;-71
2022/03/23 05:16:20;;;;;;;62.33;20.50;;;;;;;2.03;nan;102128.47;5024781;28;20037;-70
2022/03/23 05:18:45;;;;;;;48.35;20.45;;;;;;;1.82;nan;102089.53;5007383;28;20418;-70
2022/03/23 05:21:11;;;;;;;55.33;21.35;;;;;;;2.13;nan;102138.94;5018612;28;20041;-70
2022/03/23 05:23:37;;;;;;;60.67;21.95;;;;;;;2.15;nan;102134.44;5019793;28;20044;-71
2022/03/23 05:26:03;;;;;;;53.05;20.58;;;;;;;2.20;nan;102139.28;5017827;28;20036;-71
2022/03/23 05:28:28;;;;;;;53.50;20.95;;;;;;;2.22;nan;102129.56;5025155;28;20490;-70
2022/03/23 05:30:54;;;;;;;49.60;20.70;;;;;;;2.31;nan;102132.22;5020321;28;20137;-70
2022/03/23 05:33:19;;;;;;;59.72;22.60;;;;;;;2.33;nan;102130.34;5019150;28;20036;-69
2022/03/23 05:35:44;;;;;;;67.45;21.92;;;;;;;2.44;nan;102133.81;5011955;28;20080;-70
2022/03/23 05:38:10;;;;;;;55.50;20.30;;;;;;;2.08;nan;102096.94;5032881;28;20056;-70
2022/03/23 05:40:35;;;;;;;58.33;20.33;;;;;;;2.59;nan;102145.53;5034974;28;20042;-69
2022/03/23 05:43:01;;;;;;;47.92;19.33;;;;;;;2.59;nan;102129.13;5037682;28;20097;-70
2022/03/23 05:45:26;;;;;;;53.22;21.52;;;;;;;2.64;nan;102124.34;5031050;28;20033;-71
2022/03/23 05:47:53;;;;;;;56.50;20.60;;;;;;;2.80;nan;102136.84;5023320;28;20395;-69
2022/03/23 05:50:20;;;;;;;45.25;19.08;;;;;;;2.89;nan;102131.69;5032935;28;20061;-71
2022/03/23 05:52:45;;;;;;;51.10;19.77;;;;;;;2.89;nan;102120.47;5025110;28;20128;-72
2022/03/23 05:55:11;;;;;;;54.28;19.95;;;;;;;3.02;nan;102128.88;5027452;28;20117;-72
2022/03/23 05:57:37;;;;;;;48.40;19.38;;;;;;;3.14;nan;102140.00;5005301;28;20049;-72
2022/03/23 06:00:06;;;;;;;56.55;20.48;;;;;;;3.20;nan;102134.25;5028596;28;20041;-72
2022/03/23 06:02:31;;;;;;;51.80;20.48;;;;;;;3.28;nan;102134.41;5027870;28;20053;-73
2022/03/23 06:04:57;;;;;;;63.58;21.98;;;;;;;3.40;nan;102137.72;4986051;28;20041;-72
2022/03/23 06:07:22;;;;;;;60.80;21.80;;;;;;;3.57;nan;102144.88;5006446;28;20052;-72
2022/03/23 06:09:47;;;;;;;62.70;22.55;;;;;;;3.65;nan;102138.97;5012949;28;20040;-73
2022/03/23 06:12:14;;;;;;;62.38;24.05;;;;;;;3.75;nan;102137.19;5031057;28;20585;-72
2022/03/23 06:14:43;;;;;;;62.08;24.15;;;;;;;3.94;nan;102154.59;5032384;28;20032;-72
2022/03/23 06:17:11;;;;;;;54.70;23.63;;;;;;;3.98;nan;102131.72;5012568;28;20402;-72
2022/03/23 06:19:37;;;;;;;70.22;23.25;;;;;;;4.20;nan;102146.22;5032665;28;20041;-71
2022/03/23 06:22:03;;;;;;;73.47;24.88;;;;;;;4.33;nan;102136.31;5031407;28;20107;-71
2022/03/23 06:24:29;;;;;;;61.40;23.75;;;;;;;4.41;nan;102133.81;5013064;28;20124;-71
2022/03/23 06:26:54;;;;;;;54.13;22.17;;;;;;;4.70;nan;102138.13;5019576;28;20109;-71
2022/03/23 06:29:20;;;;;;;82.63;23.23;;;;;;;4.82;nan;102144.81;5024435;28;20583;-70
2022/03/23 06:31:45;;;;;;;54.95;20.23;;;;;;;4.86;nan;102133.13;5027704;28;20847;-71
2022/03/23 06:34:10;;;;;;;52.30;17.65;;;;;;;5.10;nan;102143.03;5023991;28;20391;-72
2022/03/23 06:36:36;;;;;;;48.90;18.52;;;;;;;5.28;nan;102150.06;5027280;28;20095;-71
2022/03/23 06:39:03;;;;;;;48.70;18.58;;;;;;;5.27;nan;102138.81;5022534;28;20029;-72
2022/03/23 06:41:29;;;;;;;59.50;21.00;;;;;;;5.56;nan;102144.81;5030627;28;20492;-71
2022/03/23 06:43:54;;;;;;;75.22;21.70;;;;;;;5.60;nan;102139.13;5023360;28;20091;-71
2022/03/23 06:46:19;;;;;;;65.97;18.85;;;;;;;5.67;nan;102140.16;5014752;28;20069;-70
2022/03/23 06:48:48;;;;;;;55.00;18.30;;;;;;;5.81;nan;102143.25;5007474;28;20037;-72
2022/03/23 06:51:14;;;;;;;50.30;16.30;;;;;;;6.02;nan;102161.28;5028293;28;20029;-71
2022/03/23 06:53:40;;;;;;;33.38;12.90;;;;;;;6.00;nan;102132.66;5005097;28;20048;-72
2022/03/23 06:56:05;;;;;;;58.58;18.50;;;;;;;6.24;nan;102152.09;5025218;28;20037;-70
2022/03/23 06:58:31;;;;;;;58.85;18.30;;;;;;;6.30;nan;102147.09;5021076;28;20038;-71
2022/03/23 07:00:57;;;;;;;30.48;10.70;;;;;;;6.68;nan;102145.03;4995443;28;20480;-71
2022/03/23 07:03:23;;;;;;;26.70;9.85;;;;;;;6.77;nan;102144.06;5013074;28;20065;-71
2022/03/23 07:05:49;;;;;;;25.27;10.55;;;;;;;6.89;nan;102149.84;5027575;28;20667;-72
2022/03/23 07:10:58;;;;;;;25.80;8.80;;;;;;;7.08;nan;102142.72;5012480;28;20405;-70
2022/03/23 07:13:24;;;;;;;22.63;8.75;;;;;;;7.20;nan;102134.41;5016874;28;20030;-70
2022/03/23 07:15:49;;;;;;;27.20;8.75;;;;;;;7.28;nan;102136.25;5024855;28;20236;-72
2022/03/23 07:18:15;;;;;;;24.13;7.70;;;;;;;7.49;nan;102142.81;5024767;28;20037;-71
2022/03/23 07:20:40;;;;;;;23.63;7.60;;;;;;;7.57;nan;102137.63;5022443;28;20126;-70
2022/03/23 07:23:06;;;;;;;24.42;8.30;;;;;;;7.64;nan;102133.38;4990491;28;20038;-76
2022/03/23 07:25:31;;;;;;;20.77;8.13;;;;;;;7.80;nan;102146.47;5013744;28;20040;-71
2022/03/23 07:27:57;;;;;;;23.27;6.57;;;;;;;7.95;nan;102153.69;5028685;28;20033;-72
2022/03/23 07:30:23;;;;;;;18.77;6.55;;;;;;;8.03;nan;102140.56;5028680;28;20034;-71
2022/03/23 07:32:51;;;;;;;20.05;6.40;;;;;;;8.12;nan;102134.34;4998858;28;20100;-75
2022/03/23 07:35:17;;;;;;;13.20;5.40;;;;;;;8.36;nan;102151.84;5024710;28;20038;-71
2022/03/23 07:37:42;;;;;;;15.27;5.32;;;;;;;8.46;nan;102144.63;5029196;28;20600;-71
2022/03/23 07:40:08;;;;;;;15.90;5.47;;;;;;;8.57;nan;102148.72;5018120;28;20136;-75
2022/03/23 07:42:34;;;;;;;14.73;5.50;;;;;;;8.63;nan;102148.03;5026510;28;20375;-74
2022/03/23 07:44:59;;;;;;;19.88;6.18;;;;;;;8.77;nan;102143.91;5011275;28;20057;-73
2022/03/23 07:47:24;;;;;;;17.48;5.72;;;;;;;8.82;nan;102146.00;5010808;28;20137;-74
2022/03/23 07:49:50;;;;;;;17.30;5.97;;;;;;;8.94;nan;102148.09;5016958;28;20046;-74
2022/03/23 07:52:15;;;;;;;16.83;5.75;;;;;;;9.00;nan;102143.94;5010955;28;20033;-74
2022/03/23 07:54:41;;;;;;;16.25;5.53;;;;;;;9.07;nan;102134.38;4992251;28;20407;-74
2022/03/23 07:57:06;;;;;;;15.13;5.80;;;;;;;9.23;nan;102149.25;5020364;28;20038;-74
2022/03/23 07:59:33;;;;;;;16.67;6.47;;;;;;;9.35;nan;102158.41;5017787;28;20427;-72
2022/03/23 08:01:58;;;;;;;14.10;5.20;;;;;;;9.40;nan;102142.09;5009974;28;20050;-74
2022/03/23 08:04:24;;;;;;;15.15;5.70;;;;;;;9.54;nan;102148.44;5013070;28;20091;-74
2022/03/23 08:06:49;;;;;;;15.93;5.85;;;;;;;9.65;nan;102160.34;5015373;28;20033;-75
2022/03/23 08:09:14;;;;;;;14.70;6.40;;;;;;;9.74;nan;102151.41;5024088;28;20148;-75
2022/03/23 08:11:40;;;;;;;19.50;5.38;;;;;;;9.86;nan;102149.97;5010824;28;20487;-75
2022/03/23 08:14:05;;;;;;;19.10;5.60;;;;;;;9.98;nan;102140.69;5011270;28;20037;-75
2022/03/23 08:16:30;;;;;;;18.30;5.90;;;;;;;10.04;nan;102144.44;5018601;28;20480;-75
2022/03/23 08:18:56;;;;;;;17.80;5.82;;;;;;;10.15;nan;102141.38;5011952;28;20056;-75
2022/03/23 08:21:23;;;;;;;17.23;5.90;;;;;;;10.20;nan;102130.31;5016200;28;20040;-75
2022/03/23 08:23:49;;;;;;;13.82;5.32;;;;;;;10.38;nan;102138.69;5023996;28;20084;-75
2022/03/23 08:26:16;;;;;;;28.38;5.88;;;;;;;10.46;nan;102126.44;4994816;28;20468;-75
2022/03/23 08:28:43;;;;;;;16.23;6.13;;;;;;;10.58;nan;102138.16;5011721;28;20030;-75
2022/03/23 08:31:09;;;;;;;20.75;5.78;;;;;;;10.62;nan;102129.69;5014088;28;20149;-74
2022/03/23 08:33:35;;;;;;;18.58;6.10;;;;;;;10.68;nan;102114.16;5029265;28;20033;-73
2022/03/23 08:36:01;;;;;;;23.88;6.03;;;;;;;10.88;nan;102130.22;5014295;28;20034;-74
2022/03/23 08:38:27;;;;;;;22.80;6.50;;;;;;;10.95;nan;102120.59;5012964;28;20041;-74
2022/03/23 08:40:53;;;;;;;15.55;5.65;;;;;;;11.00;nan;102108.47;5023269;28;20045;-75
2022/03/23 08:43:18;;;;;;;23.95;6.78;;;;;;;11.14;nan;102106.00;5005276;28;20030;-74
2022/03/23 08:45:44;;;;;;;24.85;6.72;;;;;;;11.32;nan;102114.28;5017366;28;20033;-74
2022/03/23 08:48:10;;;;;;;22.85;7.45;;;;;;;11.43;nan;102121.72;5019357;28;20018;-75
2022/03/23 08:50:36;;;;;;;17.50;6.28;;;;;;;11.57;nan;102124.50;5006638;28;20066;-75
2022/03/23 08:53:05;;;;;;;26.63;6.68;;;;;;;11.56;nan;102104.38;5020402;28;20037;-74
2022/03/23 08:55:30;;;;;;;14.88;6.25;;;;;;;11.69;nan;102107.94;4992049;28;20072;-74
2022/03/23 08:57:56;;;;;;;20.05;7.15;;;;;;;11.81;nan;102112.72;5016786;28;20061;-75
2022/03/23 09:00:22;;;;;;;23.30;7.00;;;;;;;11.76;nan;102094.81;5009590;28;20045;-74
2022/03/23 09:02:48;;;;;;;23.20;7.00;;;;;;;11.80;nan;102092.59;5017310;28;20057;-74
2022/03/23 09:05:14;;;;;;;16.17;6.53;;;;;;;11.89;nan;102084.38;5024173;28;20026;-73
2022/03/23 09:07:43;;;;;;;25.95;7.75;;;;;;;11.84;nan;102049.78;5019918;28;20044;-74
2022/03/23 09:10:10;;;;;;;25.67;7.57;;;;;;;12.28;nan;102093.59;5018851;28;20574;-74
2022/03/23 09:12:36;;;;;;;21.42;7.72;;;;;;;12.16;nan;102059.97;5022281;28;20124;-74
2022/03/23 09:15:03;;;;;;;18.40;7.03;;;;;;;12.44;nan;102095.06;5015467;28;20041;-73
2022/03/23 09:17:28;;;;;;;23.98;7.25;;;;;;;12.49;nan;102081.28;5019190;28;20045;-72
2022/03/23 09:19:55;;;;;;;25.63;6.95;;;;;;;12.62;nan;102078.72;5027139;28;20033;-74
2022/03/23 09:22:21;;;;;;;19.10;7.60;;;;;;;12.70;nan;102077.72;5026307;28;20038;-73
2022/03/23 09:24:47;;;;;;;21.42;7.00;;;;;;;12.80;nan;102072.88;5032782;28;20053;-73
2022/03/23 09:27:12;;;;;;;22.77;6.65;;;;;;;12.84;nan;102060.09;5028150;28;20022;-72
2022/03/23 09:29:39;;;;;;;26.80;7.22;;;;;;;12.89;nan;102057.66;5042498;28;20040;-71
2022/03/23 09:32:09;;;;;;;18.63;7.00;;;;;;;13.06;nan;102058.09;5040879;28;20033;-75
2022/03/23 09:34:35;;;;;;;18.98;7.25;;;;;;;13.15;nan;102052.41;5031253;28;20120;-74
2022/03/23 09:39:44;;;;;;;23.77;6.90;;;;;;;13.33;nan;102043.91;5014070;28;20030;-74
2022/03/23 09:42:11;;;;;;;16.80;6.75;;;;;;;13.46;nan;102032.53;5025898;28;20372;-74
2022/03/23 09:44:37;;;;;;;19.48;6.55;;;;;;;13.62;nan;102047.16;5017953;28;20030;-74
2022/03/23 09:47:05;;;;;;;19.45;6.07;;;;;;;13.66;nan;102042.28;5023967;28;20483;-75
2022/03/23 09:49:30;;;;;;;18.38;5.88;;;;;;;13.51;nan;102008.09;5031073;28;20064;-74
2022/03/23 09:51:56;;;;;;;11.68;5.82;;;;;;;13.70;nan;102031.09;5012950;28;20112;-72
2022/03/23 09:54:22;;;;;;;15.43;5.28;;;;;;;13.88;nan;102034.94;5013234;28;20039;-73
2022/03/23 09:56:49;;;;;;;16.75;5.45;;;;;;;13.89;nan;102023.34;5010971;28;20041;-73
2022/03/23 09:59:14;;;;;;;18.33;6.10;;;;;;;13.82;nan;102012.75;5021943;28;20058;-73
2022/03/23 10:01:51;;;;;;;18.17;5.95;;;;;;;13.98;nan;102032.66;5019084;28;20218;-70
2022/03/23 10:04:17;;;;;;;16.00;6.22;;;;;;;14.08;nan;102027.78;5031851;28;20041;-71
2022/03/23 10:07:04;;;;;;;20.73;6.38;;;;;;;14.31;nan;102029.91;5023014;28;20639;-69
2022/03/23 10:09:54;;;;;;;14.27;5.60;;;;;;;14.37;nan;102029.09;4997704;28;20076;-75
2022/03/23 10:12:57;;;;;;;12.50;6.05;;;;;;;14.42;nan;102018.66;5025989;28;20034;-75
2022/03/23 10:15:59;;;;;;;11.23;5.05;;;;;;;14.51;nan;102024.56;5017358;28;20034;-74
2022/03/23 10:18:56;;;;;;;15.63;5.97;;;;;;;14.55;nan;102023.13;5031322;28;20125;-74
2022/03/23 10:21:27;;;;;;;17.52;5.40;;;;;;;14.52;nan;102004.16;5017742;28;20589;-70
2022/03/23 10:23:58;;;;;;;16.27;5.22;;;;;;;14.66;nan;102008.41;4995246;28;20038;-69
2022/03/23 10:26:24;;;;;;;14.00;5.18;;;;;;;14.64;nan;101997.19;5022676;28;20069;-74
2022/03/23 10:28:50;;;;;;;14.52;5.47;;;;;;;14.70;nan;101999.00;5017698;28;20084;-74
2022/03/23 10:31:20;;;;;;;13.60;5.55;;;;;;;14.68;nan;101993.91;5018849;28;20038;-74
2022/03/23 10:34:00;;;;;;;15.27;5.18;;;;;;;14.77;nan;101998.94;5017769;28;20060;-72
2022/03/23 10:36:28;;;;;;;;;;;;;;;14.84;nan;101997.91;5024387;28;20112;-71
2022/03/23 10:39:06;;;;;;;14.73;4.73;;;;;;;14.96;nan;102002.50;5012817;28;19925;-75
2022/03/23 10:41:32;;;;;;;17.40;5.20;;;;;;;14.95;nan;101975.16;5025095;28;20423;-74
2022/03/23 10:43:58;;;;;;;14.73;4.93;;;;;;;15.07;nan;101984.03;5023994;28;20087;-74
2022/03/23 10:46:24;;;;;;;11.55;4.40;;;;;;;15.15;nan;101977.66;5003214;28;20029;-74
2022/03/23 10:49:06;;;;;;;12.10;5.25;;;;;;;15.17;nan;101964.97;5025623;28;20099;-75
2022/03/23 10:51:36;;;;;;;15.23;5.35;;;;;;;15.32;nan;101977.91;5026664;28;20048;-74
2022/03/23 10:54:15;;;;;;;15.00;5.05;;;;;;;15.42;nan;101967.63;5024107;28;20099;-74
2022/03/23 10:56:42;;;;;;;17.80;5.15;;;;;;;15.57;nan;101955.84;5026322;28;20541;-75
2022/03/23 10:59:16;;;;;;;14.80;5.20;;;;;;;15.69;nan;101962.06;5023221;28;20033;-74
2022/03/23 11:01:55;;;;;;;13.32;5.30;;;;;;;15.76;nan;101962.84;5017450;28;20053;-74
2022/03/23 11:04:21;;;;;;;10.27;3.90;;;;;;;15.73;nan;101942.03;5011431;28;20041;-74
2022/03/23 11:06:46;;;;;;;14.15;4.60;;;;;;;15.78;nan;101942.19;5022316;28;20025;-74
2022/03/23 11:18:19;;;;;;;12.55;4.20;;;;;;;16.05;nan;101929.38;5019051;28;20668;-72
2022/03/23 11:20:51;;;;;;;20.30;4.63;;;;;;;16.11;nan;101936.47;5015652;28;20045;-71
2022/03/23 11:23:24;;;;;;;14.00;5.03;;;;;;;16.09;nan;101930.56;5016101;28;20046;-68
2022/03/23 11:26:00;;;;;;;10.45;4.95;;;;;;;16.12;nan;101919.47;5017056;28;20514;-70
2022/03/23 11:28:28;;;;;;;15.23;4.75;;;;;;;16.14;nan;101916.59;5023688;28;20041;-71
2022/03/23 11:30:55;;;;;;;21.05;5.40;;;;;;;16.20;nan;101920.22;5014101;28;20661;-71
2022/03/23 11:33:25;;;;;;;10.57;4.40;;;;;;;16.32;nan;101911.22;5010448;28;20408;-71
2022/03/23 11:35:52;;;;;;;9.57;3.90;;;;;;;16.32;nan;101908.56;5014334;28;20040;-71
2022/03/23 11:38:25;;;;;;;18.70;5.13;;;;;;;16.28;nan;101898.63;5024691;28;20042;-71
2022/03/23 11:40:52;;;;;;;11.40;4.57;;;;;;;16.29;nan;101893.09;5016773;28;20033;-71
2022/03/23 11:43:23;;;;;;;17.08;4.75;;;;;;;16.41;nan;101897.63;5024961;28;20391;-71
2022/03/23 11:45:51;;;;;;;14.02;4.80;;;;;;;16.38;nan;101896.25;5017787;28;20037;-70
2022/03/23 11:48:35;;;;;;;13.25;4.75;;;;;;;16.34;nan;101874.59;5019208;28;20026;-70
2022/03/23 11:51:23;;;;;;;11.40;4.35;;;;;;;16.50;nan;101880.31;5015877;28;20049;-71
2022/03/23 11:54:06;;;;;;;10.88;4.82;;;;;;;16.56;nan;101879.38;5017727;28;20037;-71
2022/03/23 11:56:58;;;;;;;10.77;4.30;;;;;;;16.69;nan;101873.03;5010076;28;20037;-71